sensor_id;sensor_type;location;lat;lon;timestamp;P1;durP1;ratioP1;P2;durP2;ratioP2
70169;SDS011;57543;45.442;9.212;2022-10-04T00:02:31;26.53;;;16.53;;
70169;SDS011;57543;45.442;9.212;2022-10-04T00:05:36;26.52;;;15.40;;
70169;SDS011;57543;45.442;9.212;2022-10-04T00:11:58;27.73;;;15.85;;
70169;SDS011;57543;45.442;9.212;2022-10-04T00:15:04;26.25;;;16.00;;
70169;SDS011;57543;45.442;9.212;2022-10-04T00:18:28;24.83;;;14.87;;
70169;SDS011;57543;45.442;9.212;2022-10-04T00:31:25;24.30;;;14.80;;
70169;SDS011;57543;45.442;9.212;2022-10-04T00:37:52;26.38;;;15.13;;
70169;SDS011;57543;45.442;9.212;2022-10-04T00:41:11;27.60;;;16.70;;
70169;SDS011;57543;45.442;9.212;2022-10-04T00:47:27;27.83;;;15.40;;
70169;SDS011;57543;45.442;9.212;2022-10-04T00:53:46;25.70;;;15.20;;
70169;SDS011;57543;45.442;9.212;2022-10-04T00:57:01;25.42;;;15.27;;
70169;SDS011;57543;45.442;9.212;2022-10-04T01:03:17;22.95;;;15.40;;
70169;SDS011;57543;45.442;9.212;2022-10-04T01:06:27;27.57;;;15.87;;
70169;SDS011;57543;45.442;9.212;2022-10-04T01:09:32;24.50;;;14.85;;
70169;SDS011;57543;45.442;9.212;2022-10-04T01:12:50;24.17;;;15.65;;
70169;SDS011;57543;45.442;9.212;2022-10-04T01:16:03;24.42;;;15.00;;
70169;SDS011;57543;45.442;9.212;2022-10-04T01:22:36;24.60;;;16.13;;
70169;SDS011;57543;45.442;9.212;2022-10-04T01:25:50;26.40;;;14.80;;
70169;SDS011;57543;45.442;9.212;2022-10-04T01:28:54;23.75;;;15.07;;
70169;SDS011;57543;45.442;9.212;2022-10-04T01:32:01;23.27;;;14.63;;
70169;SDS011;57543;45.442;9.212;2022-10-04T01:35:06;23.17;;;14.73;;
70169;SDS011;57543;45.442;9.212;2022-10-04T01:38:12;27.50;;;15.33;;
70169;SDS011;57543;45.442;9.212;2022-10-04T01:41:17;26.42;;;15.80;;
70169;SDS011;57543;45.442;9.212;2022-10-04T01:44:32;23.48;;;15.25;;
70169;SDS011;57543;45.442;9.212;2022-10-04T01:47:47;26.30;;;16.05;;
70169;SDS011;57543;45.442;9.212;2022-10-04T01:50:57;25.08;;;15.45;;
70169;SDS011;57543;45.442;9.212;2022-10-04T01:54:09;26.73;;;15.17;;
70169;SDS011;57543;45.442;9.212;2022-10-04T01:57:21;23.45;;;14.15;;
70169;SDS011;57543;45.442;9.212;2022-10-04T02:00:27;23.15;;;14.63;;
70169;SDS011;57543;45.442;9.212;2022-10-04T02:03:34;22.70;;;14.27;;
70169;SDS011;57543;45.442;9.212;2022-10-04T02:06:40;26.40;;;15.45;;
70169;SDS011;57543;45.442;9.212;2022-10-04T02:09:46;21.83;;;14.40;;
70169;SDS011;57543;45.442;9.212;2022-10-04T02:12:56;26.15;;;15.55;;
70169;SDS011;57543;45.442;9.212;2022-10-04T02:16:03;27.15;;;15.88;;
70169;SDS011;57543;45.442;9.212;2022-10-04T02:19:11;26.38;;;15.50;;
70169;SDS011;57543;45.442;9.212;2022-10-04T02:22:17;25.95;;;15.68;;
70169;SDS011;57543;45.442;9.212;2022-10-04T02:25:21;22.90;;;14.17;;
70169;SDS011;57543;45.442;9.212;2022-10-04T02:28:31;23.02;;;14.55;;
70169;SDS011;57543;45.442;9.212;2022-10-04T02:31:36;25.30;;;15.43;;
70169;SDS011;57543;45.442;9.212;2022-10-04T02:34:59;26.58;;;15.45;;
70169;SDS011;57543;45.442;9.212;2022-10-04T02:38:12;28.88;;;15.43;;
70169;SDS011;57543;45.442;9.212;2022-10-04T02:41:37;27.40;;;15.33;;
70169;SDS011;57543;45.442;9.212;2022-10-04T02:44:46;24.75;;;14.30;;
70169;SDS011;57543;45.442;9.212;2022-10-04T02:48:01;25.67;;;14.60;;
70169;SDS011;57543;45.442;9.212;2022-10-04T02:54:30;25.45;;;14.75;;
70169;SDS011;57543;45.442;9.212;2022-10-04T02:57:41;22.07;;;14.13;;
70169;SDS011;57543;45.442;9.212;2022-10-04T03:00:47;23.33;;;14.23;;
70169;SDS011;57543;45.442;9.212;2022-10-04T03:03:53;23.33;;;13.82;;
70169;SDS011;57543;45.442;9.212;2022-10-04T03:06:58;23.33;;;14.30;;
70169;SDS011;57543;45.442;9.212;2022-10-04T03:10:06;22.33;;;13.80;;
70169;SDS011;57543;45.442;9.212;2022-10-04T03:13:13;26.70;;;14.73;;
70169;SDS011;57543;45.442;9.212;2022-10-04T03:16:18;24.17;;;13.23;;
70169;SDS011;57543;45.442;9.212;2022-10-04T03:19:23;25.63;;;14.80;;
70169;SDS011;57543;45.442;9.212;2022-10-04T03:22:28;21.67;;;13.50;;
70169;SDS011;57543;45.442;9.212;2022-10-04T03:25:45;21.25;;;14.00;;
70169;SDS011;57543;45.442;9.212;2022-10-04T03:28:55;21.20;;;13.07;;
70169;SDS011;57543;45.442;9.212;2022-10-04T03:32:02;21.90;;;13.57;;
70169;SDS011;57543;45.442;9.212;2022-10-04T03:35:14;22.08;;;13.50;;
70169;SDS011;57543;45.442;9.212;2022-10-04T03:38:28;22.08;;;14.38;;
70169;SDS011;57543;45.442;9.212;2022-10-04T03:41:39;22.17;;;14.18;;
70169;SDS011;57543;45.442;9.212;2022-10-04T03:44:45;23.70;;;13.20;;
70169;SDS011;57543;45.442;9.212;2022-10-04T03:47:49;22.13;;;13.85;;
70169;SDS011;57543;45.442;9.212;2022-10-04T03:50:55;24.95;;;14.88;;
70169;SDS011;57543;45.442;9.212;2022-10-04T03:54:00;24.25;;;14.30;;
70169;SDS011;57543;45.442;9.212;2022-10-04T03:57:05;25.38;;;14.73;;
70169;SDS011;57543;45.442;9.212;2022-10-04T04:00:13;23.40;;;14.33;;
70169;SDS011;57543;45.442;9.212;2022-10-04T04:03:21;19.83;;;13.00;;
70169;SDS011;57543;45.442;9.212;2022-10-04T04:06:32;22.10;;;13.23;;
70169;SDS011;57543;45.442;9.212;2022-10-04T04:09:44;20.33;;;12.98;;
70169;SDS011;57543;45.442;9.212;2022-10-04T04:16:15;22.50;;;12.70;;
70169;SDS011;57543;45.442;9.212;2022-10-04T04:19:28;23.38;;;12.75;;
70169;SDS011;57543;45.442;9.212;2022-10-04T04:22:32;20.08;;;12.38;;
70169;SDS011;57543;45.442;9.212;2022-10-04T04:25:39;19.48;;;11.68;;
70169;SDS011;57543;45.442;9.212;2022-10-04T04:33:12;18.97;;;11.30;;
70169;SDS011;57543;45.442;9.212;2022-10-04T04:36:04;20.70;;;11.80;;
70169;SDS011;57543;45.442;9.212;2022-10-04T04:39:16;18.08;;;11.15;;
70169;SDS011;57543;45.442;9.212;2022-10-04T04:42:36;18.80;;;11.75;;
70169;SDS011;57543;45.442;9.212;2022-10-04T04:45:40;21.73;;;11.82;;
70169;SDS011;57543;45.442;9.212;2022-10-04T04:48:45;21.10;;;12.20;;
70169;SDS011;57543;45.442;9.212;2022-10-04T04:51:50;19.02;;;11.63;;
70169;SDS011;57543;45.442;9.212;2022-10-04T04:54:55;22.48;;;12.05;;
70169;SDS011;57543;45.442;9.212;2022-10-04T04:57:58;17.48;;;11.57;;
70169;SDS011;57543;45.442;9.212;2022-10-04T05:01:08;21.05;;;11.88;;
70169;SDS011;57543;45.442;9.212;2022-10-04T05:04:23;19.03;;;11.40;;
70169;SDS011;57543;45.442;9.212;2022-10-04T05:07:27;21.58;;;11.52;;
70169;SDS011;57543;45.442;9.212;2022-10-04T05:10:32;18.10;;;11.82;;
70169;SDS011;57543;45.442;9.212;2022-10-04T05:13:38;20.80;;;12.02;;
70169;SDS011;57543;45.442;9.212;2022-10-04T05:16:48;19.00;;;11.32;;
70169;SDS011;57543;45.442;9.212;2022-10-04T05:19:57;18.20;;;10.77;;
70169;SDS011;57543;45.442;9.212;2022-10-04T05:23:02;19.83;;;11.05;;
70169;SDS011;57543;45.442;9.212;2022-10-04T05:26:09;19.33;;;10.82;;
70169;SDS011;57543;45.442;9.212;2022-10-04T05:29:16;21.65;;;11.18;;
70169;SDS011;57543;45.442;9.212;2022-10-04T05:35:37;17.77;;;10.87;;
70169;SDS011;57543;45.442;9.212;2022-10-04T05:39:04;20.02;;;10.77;;
70169;SDS011;57543;45.442;9.212;2022-10-04T05:42:24;15.90;;;9.88;;
70169;SDS011;57543;45.442;9.212;2022-10-04T05:45:40;18.15;;;10.73;;
70169;SDS011;57543;45.442;9.212;2022-10-04T05:48:44;16.40;;;9.77;;
70169;SDS011;57543;45.442;9.212;2022-10-04T05:58:28;23.02;;;11.30;;
70169;SDS011;57543;45.442;9.212;2022-10-04T06:01:52;17.10;;;10.65;;
70169;SDS011;57543;45.442;9.212;2022-10-04T06:05:11;19.45;;;11.73;;
70169;SDS011;57543;45.442;9.212;2022-10-04T06:11:44;20.35;;;12.02;;
70169;SDS011;57543;45.442;9.212;2022-10-04T06:21:23;20.85;;;12.30;;
70169;SDS011;57543;45.442;9.212;2022-10-04T06:24:30;21.83;;;12.50;;
70169;SDS011;57543;45.442;9.212;2022-10-04T06:27:39;21.73;;;13.20;;
70169;SDS011;57543;45.442;9.212;2022-10-04T06:34:22;20.45;;;11.88;;
70169;SDS011;57543;45.442;9.212;2022-10-04T06:54:50;22.30;;;12.98;;
70169;SDS011;57543;45.442;9.212;2022-10-04T06:58:29;20.67;;;12.57;;
70169;SDS011;57543;45.442;9.212;2022-10-04T07:02:00;18.30;;;11.27;;
70169;SDS011;57543;45.442;9.212;2022-10-04T07:08:44;23.45;;;13.27;;
70169;SDS011;57543;45.442;9.212;2022-10-04T07:11:54;20.02;;;12.50;;
70169;SDS011;57543;45.442;9.212;2022-10-04T07:15:07;23.87;;;12.23;;
70169;SDS011;57543;45.442;9.212;2022-10-04T07:18:23;17.35;;;11.13;;
70169;SDS011;57543;45.442;9.212;2022-10-04T07:21:35;21.27;;;13.38;;
70169;SDS011;57543;45.442;9.212;2022-10-04T07:25:05;19.70;;;11.77;;
70169;SDS011;57543;45.442;9.212;2022-10-04T07:28:26;18.95;;;11.80;;
70169;SDS011;57543;45.442;9.212;2022-10-04T07:38:25;22.73;;;12.07;;
70169;SDS011;57543;45.442;9.212;2022-10-04T07:41:35;21.77;;;12.25;;
70169;SDS011;57543;45.442;9.212;2022-10-04T07:44:43;19.40;;;12.05;;
70169;SDS011;57543;45.442;9.212;2022-10-04T07:48:04;20.17;;;11.93;;
70169;SDS011;57543;45.442;9.212;2022-10-04T07:58:56;19.83;;;12.13;;
70169;SDS011;57543;45.442;9.212;2022-10-04T08:06:08;20.63;;;11.77;;
70169;SDS011;57543;45.442;9.212;2022-10-04T08:13:14;18.52;;;11.00;;
70169;SDS011;57543;45.442;9.212;2022-10-04T08:16:40;21.45;;;11.65;;
70169;SDS011;57543;45.442;9.212;2022-10-04T08:27:15;17.10;;;11.27;;
70169;SDS011;57543;45.442;9.212;2022-10-04T08:34:01;20.50;;;11.20;;
70169;SDS011;57543;45.442;9.212;2022-10-04T08:40:47;17.80;;;10.97;;
70169;SDS011;57543;45.442;9.212;2022-10-04T08:44:51;17.17;;;9.93;;
70169;SDS011;57543;45.442;9.212;2022-10-04T08:48:05;17.70;;;10.90;;
70169;SDS011;57543;45.442;9.212;2022-10-04T08:54:58;14.27;;;9.20;;
70169;SDS011;57543;45.442;9.212;2022-10-04T09:28:06;15.02;;;9.23;;
70169;SDS011;57543;45.442;9.212;2022-10-04T09:31:40;14.40;;;9.47;;
70169;SDS011;57543;45.442;9.212;2022-10-04T09:34:59;15.57;;;9.40;;
70169;SDS011;57543;45.442;9.212;2022-10-04T09:38:33;15.13;;;10.70;;
70169;SDS011;57543;45.442;9.212;2022-10-04T09:51:55;16.50;;;11.10;;
70169;SDS011;57543;45.442;9.212;2022-10-04T10:01:36;18.30;;;12.70;;
70169;SDS011;57543;45.442;9.212;2022-10-04T10:11:23;25.20;;;15.80;;
70169;SDS011;57543;45.442;9.212;2022-10-04T10:14:55;18.17;;;11.65;;
70169;SDS011;57543;45.442;9.212;2022-10-04T10:25:02;16.95;;;10.88;;
70169;SDS011;57543;45.442;9.212;2022-10-04T10:28:21;22.08;;;13.68;;
70169;SDS011;57543;45.442;9.212;2022-10-04T10:49:07;28.35;;;19.23;;
70169;SDS011;57543;45.442;9.212;2022-10-04T10:52:17;23.85;;;16.80;;
70169;SDS011;57543;45.442;9.212;2022-10-04T11:06:14;29.45;;;20.95;;
70169;SDS011;57543;45.442;9.212;2022-10-04T11:09:23;29.42;;;20.45;;
70169;SDS011;57543;45.442;9.212;2022-10-04T11:25:56;29.58;;;20.15;;
70169;SDS011;57543;45.442;9.212;2022-10-04T11:42:59;30.20;;;20.73;;
70169;SDS011;57543;45.442;9.212;2022-10-04T11:50:40;34.83;;;22.98;;
70169;SDS011;57543;45.442;9.212;2022-10-04T12:10:41;24.30;;;16.48;;
70169;SDS011;57543;45.442;9.212;2022-10-04T12:31:05;25.05;;;15.43;;
70169;SDS011;57543;45.442;9.212;2022-10-04T12:37:27;26.87;;;18.20;;
70169;SDS011;57543;45.442;9.212;2022-10-04T12:43:52;22.15;;;14.20;;
70169;SDS011;57543;45.442;9.212;2022-10-04T13:00:43;23.45;;;16.30;;
70169;SDS011;57543;45.442;9.212;2022-10-04T13:14:01;20.70;;;12.98;;
70169;SDS011;57543;45.442;9.212;2022-10-04T13:20:50;25.08;;;15.77;;
70169;SDS011;57543;45.442;9.212;2022-10-04T13:51:03;24.27;;;14.30;;
70169;SDS011;57543;45.442;9.212;2022-10-04T13:54:28;18.98;;;11.55;;
70169;SDS011;57543;45.442;9.212;2022-10-04T13:58:45;18.52;;;11.82;;
70169;SDS011;57543;45.442;9.212;2022-10-04T14:01:52;14.23;;;9.50;;
70169;SDS011;57543;45.442;9.212;2022-10-04T14:08:55;19.58;;;11.98;;
70169;SDS011;57543;45.442;9.212;2022-10-04T14:19:38;16.50;;;11.13;;
70169;SDS011;57543;45.442;9.212;2022-10-04T14:26:28;19.77;;;12.00;;
70169;SDS011;57543;45.442;9.212;2022-10-04T14:50:48;18.05;;;10.68;;
70169;SDS011;57543;45.442;9.212;2022-10-04T14:54:37;14.37;;;8.33;;
70169;SDS011;57543;45.442;9.212;2022-10-04T14:58:17;17.95;;;10.95;;
70169;SDS011;57543;45.442;9.212;2022-10-04T15:15:49;19.25;;;11.63;;
70169;SDS011;57543;45.442;9.212;2022-10-04T15:22:10;14.27;;;9.60;;
70169;SDS011;57543;45.442;9.212;2022-10-04T15:25:41;15.77;;;9.57;;
70169;SDS011;57543;45.442;9.212;2022-10-04T15:29:00;13.43;;;9.00;;
70169;SDS011;57543;45.442;9.212;2022-10-04T15:32:21;14.05;;;8.32;;
70169;SDS011;57543;45.442;9.212;2022-10-04T15:38:55;21.40;;;10.90;;
70169;SDS011;57543;45.442;9.212;2022-10-04T15:42:09;15.05;;;9.77;;
70169;SDS011;57543;45.442;9.212;2022-10-04T15:45:34;14.57;;;8.60;;
70169;SDS011;57543;45.442;9.212;2022-10-04T15:58:45;15.15;;;9.00;;
70169;SDS011;57543;45.442;9.212;2022-10-04T16:09:14;15.73;;;9.70;;
70169;SDS011;57543;45.442;9.212;2022-10-04T16:16:11;14.25;;;8.88;;
70169;SDS011;57543;45.442;9.212;2022-10-04T16:22:28;18.05;;;10.80;;
70169;SDS011;57543;45.442;9.212;2022-10-04T16:25:35;15.05;;;9.90;;
70169;SDS011;57543;45.442;9.212;2022-10-04T16:35:29;12.67;;;8.40;;
70169;SDS011;57543;45.442;9.212;2022-10-04T16:38:44;20.15;;;11.95;;
70169;SDS011;57543;45.442;9.212;2022-10-04T16:42:08;13.27;;;8.50;;
70169;SDS011;57543;45.442;9.212;2022-10-04T16:48:51;15.05;;;9.77;;
70169;SDS011;57543;45.442;9.212;2022-10-04T16:58:56;13.98;;;8.95;;
70169;SDS011;57543;45.442;9.212;2022-10-04T17:02:12;15.88;;;9.45;;
70169;SDS011;57543;45.442;9.212;2022-10-04T17:05:45;13.52;;;8.40;;
70169;SDS011;57543;45.442;9.212;2022-10-04T17:09:10;12.57;;;8.07;;
70169;SDS011;57543;45.442;9.212;2022-10-04T17:19:51;17.88;;;11.35;;
70169;SDS011;57543;45.442;9.212;2022-10-04T17:26:29;17.93;;;10.70;;
70169;SDS011;57543;45.442;9.212;2022-10-04T17:33:06;21.27;;;12.65;;
70169;SDS011;57543;45.442;9.212;2022-10-04T17:36:48;17.00;;;11.20;;
70169;SDS011;57543;45.442;9.212;2022-10-04T17:47:00;18.90;;;12.07;;
70169;SDS011;57543;45.442;9.212;2022-10-04T17:50:18;19.23;;;11.75;;
70169;SDS011;57543;45.442;9.212;2022-10-04T17:53:45;21.05;;;11.57;;
70169;SDS011;57543;45.442;9.212;2022-10-04T17:57:23;24.75;;;13.48;;
70169;SDS011;57543;45.442;9.212;2022-10-04T18:00:53;22.07;;;14.50;;
70169;SDS011;57543;45.442;9.212;2022-10-04T18:04:05;19.50;;;12.15;;
70169;SDS011;57543;45.442;9.212;2022-10-04T18:07:23;20.63;;;12.80;;
70169;SDS011;57543;45.442;9.212;2022-10-04T18:10:31;25.95;;;14.30;;
70169;SDS011;57543;45.442;9.212;2022-10-04T18:14:10;25.33;;;15.70;;
70169;SDS011;57543;45.442;9.212;2022-10-04T18:17:32;22.47;;;14.43;;
70169;SDS011;57543;45.442;9.212;2022-10-04T18:27:21;21.63;;;13.27;;
70169;SDS011;57543;45.442;9.212;2022-10-04T18:30:28;22.70;;;13.68;;
70169;SDS011;57543;45.442;9.212;2022-10-04T18:36:49;23.35;;;15.38;;
70169;SDS011;57543;45.442;9.212;2022-10-04T18:40:13;28.90;;;16.85;;
70169;SDS011;57543;45.442;9.212;2022-10-04T18:43:30;30.58;;;17.33;;
70169;SDS011;57543;45.442;9.212;2022-10-04T18:46:38;29.77;;;16.85;;
70169;SDS011;57543;45.442;9.212;2022-10-04T18:49:46;25.13;;;15.17;;
70169;SDS011;57543;45.442;9.212;2022-10-04T18:56:24;26.00;;;16.92;;
70169;SDS011;57543;45.442;9.212;2022-10-04T19:03:06;29.75;;;17.23;;
70169;SDS011;57543;45.442;9.212;2022-10-04T19:06:28;30.50;;;17.63;;
70169;SDS011;57543;45.442;9.212;2022-10-04T19:09:44;30.23;;;17.38;;
70169;SDS011;57543;45.442;9.212;2022-10-04T19:20:03;28.48;;;16.73;;
70169;SDS011;57543;45.442;9.212;2022-10-04T19:29:54;29.67;;;18.10;;
70169;SDS011;57543;45.442;9.212;2022-10-04T19:33:16;31.33;;;17.00;;
70169;SDS011;57543;45.442;9.212;2022-10-04T19:36:38;29.35;;;16.77;;
70169;SDS011;57543;45.442;9.212;2022-10-04T19:39:56;30.27;;;15.97;;
70169;SDS011;57543;45.442;9.212;2022-10-04T19:43:19;28.35;;;17.10;;
70169;SDS011;57543;45.442;9.212;2022-10-04T19:53:25;30.50;;;17.70;;
70169;SDS011;57543;45.442;9.212;2022-10-04T19:56:38;31.17;;;18.33;;
70169;SDS011;57543;45.442;9.212;2022-10-04T19:59:51;32.20;;;17.92;;
70169;SDS011;57543;45.442;9.212;2022-10-04T20:02:56;29.00;;;17.70;;
70169;SDS011;57543;45.442;9.212;2022-10-04T20:05:59;33.90;;;17.85;;
70169;SDS011;57543;45.442;9.212;2022-10-04T20:12:27;28.07;;;17.43;;
70169;SDS011;57543;45.442;9.212;2022-10-04T20:15:45;36.13;;;19.33;;
70169;SDS011;57543;45.442;9.212;2022-10-04T20:18:57;31.52;;;18.60;;
70169;SDS011;57543;45.442;9.212;2022-10-04T20:25:55;31.95;;;18.55;;
70169;SDS011;57543;45.442;9.212;2022-10-04T20:28:47;32.70;;;18.03;;
70169;SDS011;57543;45.442;9.212;2022-10-04T20:31:51;30.10;;;17.92;;
70169;SDS011;57543;45.442;9.212;2022-10-04T20:34:56;31.45;;;18.05;;
70169;SDS011;57543;45.442;9.212;2022-10-04T20:41:04;32.00;;;18.77;;
70169;SDS011;57543;45.442;9.212;2022-10-04T20:44:44;31.73;;;18.70;;
70169;SDS011;57543;45.442;9.212;2022-10-04T20:47:57;31.40;;;18.98;;
70169;SDS011;57543;45.442;9.212;2022-10-04T20:51:07;32.50;;;18.85;;
70169;SDS011;57543;45.442;9.212;2022-10-04T20:54:16;31.73;;;18.65;;
70169;SDS011;57543;45.442;9.212;2022-10-04T20:57:22;37.25;;;20.73;;
70169;SDS011;57543;45.442;9.212;2022-10-04T21:00:29;33.00;;;19.97;;
70169;SDS011;57543;45.442;9.212;2022-10-04T21:03:38;32.58;;;19.67;;
70169;SDS011;57543;45.442;9.212;2022-10-04T21:06:52;33.33;;;19.15;;
70169;SDS011;57543;45.442;9.212;2022-10-04T21:10:05;32.47;;;19.08;;
70169;SDS011;57543;45.442;9.212;2022-10-04T21:16:45;34.67;;;19.93;;
70169;SDS011;57543;45.442;9.212;2022-10-04T21:19:49;34.75;;;19.52;;
70169;SDS011;57543;45.442;9.212;2022-10-04T21:26:32;36.72;;;20.48;;
70169;SDS011;57543;45.442;9.212;2022-10-04T21:29:38;35.85;;;20.83;;
70169;SDS011;57543;45.442;9.212;2022-10-04T21:32:42;33.47;;;20.27;;
70169;SDS011;57543;45.442;9.212;2022-10-04T21:35:48;39.30;;;21.23;;
70169;SDS011;57543;45.442;9.212;2022-10-04T21:38:53;37.95;;;22.05;;
70169;SDS011;57543;45.442;9.212;2022-10-04T21:41:59;35.97;;;20.15;;
70169;SDS011;57543;45.442;9.212;2022-10-04T21:45:03;36.45;;;21.63;;
70169;SDS011;57543;45.442;9.212;2022-10-04T21:48:07;35.67;;;21.37;;
70169;SDS011;57543;45.442;9.212;2022-10-04T21:51:10;38.60;;;22.50;;
70169;SDS011;57543;45.442;9.212;2022-10-04T21:54:13;38.15;;;21.65;;
70169;SDS011;57543;45.442;9.212;2022-10-04T21:57:17;35.90;;;21.27;;
70169;SDS011;57543;45.442;9.212;2022-10-04T22:00:20;38.53;;;22.20;;
70169;SDS011;57543;45.442;9.212;2022-10-04T22:03:24;40.17;;;23.03;;
70169;SDS011;57543;45.442;9.212;2022-10-04T22:06:28;36.00;;;21.25;;
70169;SDS011;57543;45.442;9.212;2022-10-04T22:09:32;41.38;;;22.10;;
70169;SDS011;57543;45.442;9.212;2022-10-04T22:12:36;37.90;;;21.50;;
70169;SDS011;57543;45.442;9.212;2022-10-04T22:15:42;38.97;;;22.75;;
70169;SDS011;57543;45.442;9.212;2022-10-04T22:18:46;39.80;;;23.03;;
70169;SDS011;57543;45.442;9.212;2022-10-04T22:21:50;41.35;;;23.00;;
70169;SDS011;57543;45.442;9.212;2022-10-04T22:24:54;39.15;;;23.17;;
70169;SDS011;57543;45.442;9.212;2022-10-04T22:27:57;40.70;;;22.73;;
70169;SDS011;57543;45.442;9.212;2022-10-04T22:31:08;42.75;;;22.45;;
70169;SDS011;57543;45.442;9.212;2022-10-04T22:34:14;39.87;;;22.53;;
70169;SDS011;57543;45.442;9.212;2022-10-04T22:37:21;42.47;;;22.75;;
70169;SDS011;57543;45.442;9.212;2022-10-04T22:40:26;42.40;;;24.17;;
70169;SDS011;57543;45.442;9.212;2022-10-04T22:43:30;43.35;;;23.58;;
70169;SDS011;57543;45.442;9.212;2022-10-04T22:46:38;43.10;;;23.00;;
70169;SDS011;57543;45.442;9.212;2022-10-04T22:49:45;43.40;;;24.07;;
70169;SDS011;57543;45.442;9.212;2022-10-04T22:52:51;40.17;;;22.40;;
70169;SDS011;57543;45.442;9.212;2022-10-04T22:55:55;43.80;;;24.17;;
70169;SDS011;57543;45.442;9.212;2022-10-04T22:59:00;43.28;;;23.55;;
70169;SDS011;57543;45.442;9.212;2022-10-04T23:02:05;45.33;;;24.40;;
70169;SDS011;57543;45.442;9.212;2022-10-04T23:05:16;42.53;;;24.03;;
70169;SDS011;57543;45.442;9.212;2022-10-04T23:08:21;39.60;;;23.63;;
70169;SDS011;57543;45.442;9.212;2022-10-04T23:11:25;45.03;;;25.00;;
70169;SDS011;57543;45.442;9.212;2022-10-04T23:14:28;44.22;;;25.10;;
70169;SDS011;57543;45.442;9.212;2022-10-04T23:17:35;42.60;;;24.23;;
70169;SDS011;57543;45.442;9.212;2022-10-04T23:20:41;46.10;;;24.33;;
70169;SDS011;57543;45.442;9.212;2022-10-04T23:23:46;44.08;;;25.08;;
70169;SDS011;57543;45.442;9.212;2022-10-04T23:26:52;45.40;;;25.20;;
70169;SDS011;57543;45.442;9.212;2022-10-04T23:30:01;47.08;;;25.17;;
70169;SDS011;57543;45.442;9.212;2022-10-04T23:33:10;41.72;;;23.48;;
70169;SDS011;57543;45.442;9.212;2022-10-04T23:36:18;41.97;;;24.17;;
70169;SDS011;57543;45.442;9.212;2022-10-04T23:39:24;46.28;;;26.42;;
70169;SDS011;57543;45.442;9.212;2022-10-04T23:42:29;46.85;;;26.40;;
70169;SDS011;57543;45.442;9.212;2022-10-04T23:45:35;47.42;;;26.98;;
70169;SDS011;57543;45.442;9.212;2022-10-04T23:48:44;48.92;;;27.50;;
70169;SDS011;57543;45.442;9.212;2022-10-04T23:51:50;50.43;;;27.33;;
70169;SDS011;57543;45.442;9.212;2022-10-04T23:54:58;49.38;;;27.80;;
70169;SDS011;57543;45.442;9.212;2022-10-04T23:58:21;55.15;;;29.45;;
